Skip Navigation Links
NOAA logo - Click to go to the NOAA homepage
NOAA's National Weather Service
Alaska Aviation Weather Unit
  NWS logo - Click to go to the NWS homepage
Left Navbar Graphic     17 AKDT = 01 GMT

   
NOAA is celebrating 200 years of science, service, and stewardship. Visit the NOAA 200th celebration Web site to learn more.
USA.gov is the U.S. Government's official Web portal to all Federal, state and local government Web resources and services.
Facebook
NWS on Facebook

Important Change Regarding the AAWU Web Presence

 

Over the last several months, the AAWU has been working to navigate its webpages to a nationally supported server. Security, as well as other needs, have necessitated the change.  In the process, we have made an effort to enhance the functionality of our website, as well as some of our products. As of June 27, 2017, aawu.arh.noaa.gov will be discontinued. The new AAWU web address is weather.gov/aawu. It is now live and will run in-parallel with the old site until it is discontinued. Please send any feedback or questions regarding the new webpages to nws.ar.aawu.webauthors@noaa.gov.  Thank you for your patience during this time of transition.
AAWU Home :: Display TAF Add Bookmark
METAR PAPM 251956Z AUTO 11008KT OVC024 11/07 A2994 RMK AO2 SLP140
 T01110067 PWINO $=

METAR PAPM 252056Z AUTO 12009KT OVC023 11/07 A2992 RMK AO2 SLP135 6////
     T01110067 56019 PWINO $=

METAR PAPM 252156Z AUTO 15009G18KT OVC021 11/07 A2990 RMK AO2 SLP128
 T01110067 PWINO $=

SPECI PAPM 252206Z AUTO 13008KT 11/06 A2990 RMK AO2 PWINO $=

METAR PAPM 252256Z AUTO 10011G18KT 12/06 A2988 RMK AO2 SLP119
 T01170056 PWINO $=

SPECI PAPM 252351Z AUTO 14013KT BKN029 OVC060 12/07 A2986 RMK AO2 PWINO
     $=

METAR PAPM 252356Z AUTO 14013KT BKN029 OVC060 12/06 A2986 RMK AO2 SLP115
     6//// T01170061 10117 20106 56013 PWINO $=


NOAA's National Weather Service
Alaska Aviation Weather Unit
6930 Sand Lake Road
Anchorage, AK 99502-1845
Disclaimer
Credits
Glossary
Privacy Policy
About Us
Career Opportunities
Contact AAWU Internet Services Site last modified: April, 17th 2012